Healy, AK

5:24 AM AKST on February 22, 2017 (GMT -0900)
McKinley National Park

Weather History for PAIN - October, 2012

Change the Weather History Date:

Tuesday, October 9, 2012

  Actual Average Record
Temperature  
Mean Temperature 32 °F -  
Max Temperature 35 °F 36 °F 57 °F (2006)
Min Temperature 28 °F 19 °F -7 °F (2014)
Degree Days  
Heating Degree Days 34    
Moisture  
Dew Point 30 °F    
Average Humidity 95    
Maximum Humidity 100    
Minimum Humidity 81    
Precipitation  
Precipitation 0.00 in - - ()
Sea Level Pressure  
Sea Level Pressure 30.24 in    
Wind  
Wind Speed 6 mph (North)    
Max Wind Speed 12 mph    
Max Gust Speed 17 mph    
Visibility 10 miles    
Events      
Averages and records for this station are not official NWS values.
T = Trace of Precipitation, MM = Missing Value Source: NWS Daily Summary

Daily Weather History Graph

Daily Weather History Graph

Search for Another Location

Airport or City:

Trip Planner

Search our weather history database for the weather conditions in past years. The results will help you decide how hot, cold, wet, or windy it might be!

Date:

Astronomy

Oct. 09, 2012 Rise Set
Actual Time 8:29 AM AKDT 6:54 PM AKDT
Civil Twilight 7:41 AM AKDT 7:41 PM AKDT
Nautical Twilight 6:47 AM AKDT 8:36 PM AKDT
Astronomical Twilight 5:50 AM AKDT 9:32 PM AKDT
Moon 12:16 AM AKDT (10/9) 5:11 PM AKDT (10/9)
Length of Visible Light 12h 00m
Length of Day
10h 25m
Waning Crescent, 35% of the Moon is Illuminated
Oct 9
Waning Crescent
Oct 15
New
Oct 21
First Quarter
Oct 29
Full
Nov 6
Last Quarter

Hourly Weather History & Observations

Time (AKDT) Temp. Windchill Dew Point Humidity Pressure Visibility Wind Dir Wind Speed Gust Speed Precip Events Conditions
12:16 AM 33.8 °F 29.6 °F 33.8 °F 100% 30.23 in 10.0 mi North 4.6 mph - N/A   Overcast
12:36 AM 33.8 °F 29.6 °F 33.8 °F 100% 30.23 in 5.0 mi North 4.6 mph - N/A   Overcast
12:56 AM 33.8 °F 27.7 °F 32.0 °F 93% 30.23 in 8.0 mi North 6.9 mph - N/A   Overcast
1:16 AM 32.0 °F 24.8 °F 32.0 °F 100% 30.24 in 9.0 mi North 8.1 mph - N/A   Overcast
1:36 AM 32.0 °F 27.5 °F 32.0 °F 100% 30.24 in 10.0 mi North 4.6 mph - N/A   Overcast
1:56 AM 32.0 °F 24.8 °F 32.0 °F 100% 30.24 in 10.0 mi North 8.1 mph - N/A   Overcast
2:16 AM 32.0 °F 28.7 °F 32.0 °F 100% 30.25 in 10.0 mi NNW 3.5 mph - N/A   Overcast
2:36 AM 32.0 °F 26.4 °F 32.0 °F 100% 30.24 in 10.0 mi North 5.8 mph - N/A   Overcast
2:56 AM 32.0 °F 24.8 °F 32.0 °F 100% 30.24 in 10.0 mi North 8.1 mph - N/A   Overcast
3:16 AM 32.0 °F - 32.0 °F 100% 30.24 in 10.0 mi Calm Calm - N/A   Overcast
3:36 AM 32.0 °F 25.6 °F 32.0 °F 100% 30.24 in 10.0 mi North 6.9 mph - N/A   Mostly Cloudy
3:56 AM 32.0 °F 25.6 °F 32.0 °F 100% 30.24 in 10.0 mi North 6.9 mph - N/A   Mostly Cloudy
4:16 AM 30.2 °F - 30.2 °F 100% 30.24 in 10.0 mi Calm Calm - N/A   Mostly Cloudy
4:36 AM 30.2 °F 25.4 °F 30.2 °F 100% 30.24 in 10.0 mi North 4.6 mph - N/A   Mostly Cloudy
4:56 AM 32.0 °F 28.7 °F 32.0 °F 100% 30.24 in 10.0 mi North 3.5 mph - N/A   Overcast
5:16 AM 32.0 °F 25.6 °F 32.0 °F 100% 30.24 in 10.0 mi North 6.9 mph - N/A   Overcast
5:36 AM 30.2 °F 26.7 °F 30.2 °F 100% 30.24 in 10.0 mi North 3.5 mph - N/A   Overcast
5:56 AM 30.2 °F 24.3 °F 30.2 °F 100% 30.24 in 10.0 mi North 5.8 mph - N/A   Overcast
6:16 AM 30.2 °F 22.6 °F 30.2 °F 100% 30.24 in 10.0 mi North 8.1 mph - N/A   Overcast
6:36 AM 30.2 °F 22.6 °F 30.2 °F 100% 30.24 in 10.0 mi North 8.1 mph - N/A   Overcast
6:56 AM 30.2 °F 23.4 °F 30.2 °F 100% 30.24 in 9.0 mi North 6.9 mph - N/A   Overcast
7:16 AM 30.2 °F 23.4 °F 28.4 °F 93% 30.24 in 10.0 mi North 6.9 mph 16.1 mph N/A   Overcast
7:36 AM 30.2 °F 21.3 °F 28.4 °F 93% 30.24 in 10.0 mi North 10.4 mph - N/A   Overcast
7:56 AM 30.2 °F 22.6 °F 28.4 °F 93% 30.24 in 10.0 mi North 8.1 mph - N/A   Scattered Clouds
8:16 AM 30.2 °F 22.6 °F 30.2 °F 100% 30.24 in 10.0 mi North 8.1 mph - N/A   Partly Cloudy
8:36 AM 30.2 °F 21.9 °F 30.2 °F 100% 30.25 in 10.0 mi North 9.2 mph - N/A   Mostly Cloudy
8:56 AM 30.2 °F 21.9 °F 30.2 °F 100% 30.25 in 10.0 mi North 9.2 mph - N/A   Overcast
9:16 AM 30.2 °F 24.3 °F 30.2 °F 100% 30.25 in 10.0 mi North 5.8 mph - N/A   Partly Cloudy
9:36 AM 30.2 °F 25.4 °F 30.2 °F 100% 30.25 in 10.0 mi NNW 4.6 mph - N/A   Scattered Clouds
9:56 AM 30.2 °F 23.4 °F 30.2 °F 100% 30.25 in 10.0 mi NNE 6.9 mph - N/A   Partly Cloudy
10:16 AM 30.2 °F 22.6 °F 30.2 °F 100% 30.25 in 10.0 mi North 8.1 mph - N/A   Partly Cloudy
10:36 AM 30.2 °F 21.9 °F 30.2 °F 100% 30.26 in 10.0 mi North 9.2 mph 16.1 mph N/A   Scattered Clouds
10:56 AM 30.2 °F 21.3 °F 30.2 °F 100% 30.26 in 10.0 mi North 10.4 mph - N/A   Scattered Clouds
11:16 AM 30.2 °F 23.4 °F 30.2 °F 100% 30.27 in 10.0 mi North 6.9 mph - N/A   Mostly Cloudy
11:36 AM 32.0 °F 24.2 °F 32.0 °F 100% 30.27 in 10.0 mi North 9.2 mph - N/A   Scattered Clouds
11:56 AM 33.8 °F 27.0 °F 32.0 °F 93% 30.27 in 10.0 mi North 8.1 mph - N/A   Partly Cloudy
12:16 PM 33.8 °F 26.4 °F 32.0 °F 93% 30.27 in 10.0 mi North 9.2 mph - N/A   Clear
12:36 PM 33.8 °F 26.4 °F 32.0 °F 93% 30.27 in 10.0 mi North 9.2 mph - N/A   Partly Cloudy
12:56 PM 35.6 °F 28.6 °F 32.0 °F 87% 30.27 in 10.0 mi NNE 9.2 mph - N/A   Clear
1:16 PM 35.6 °F 29.2 °F 30.2 °F 81% 30.27 in 10.0 mi North 8.1 mph - N/A   Partly Cloudy
1:36 PM 33.8 °F 27.0 °F 30.2 °F 87% 30.27 in 10.0 mi North 8.1 mph - N/A   Scattered Clouds
1:56 PM 33.8 °F 26.4 °F 30.2 °F 87% 30.27 in 10.0 mi North 9.2 mph - N/A   Scattered Clouds
2:16 PM 35.6 °F 29.2 °F 32.0 °F 87% 30.27 in 10.0 mi North 8.1 mph - N/A   Clear
2:36 PM 35.6 °F 28.6 °F 32.0 °F 87% 30.27 in 10.0 mi North 9.2 mph - N/A   Clear
2:56 PM 35.6 °F 28.6 °F 32.0 °F 87% 30.27 in 10.0 mi North 9.2 mph - N/A   Clear
3:16 PM 35.6 °F 28.6 °F 32.0 °F 87% 30.27 in 10.0 mi NNE 9.2 mph - N/A   Clear
3:36 PM 35.6 °F 29.2 °F 30.2 °F 81% 30.27 in 10.0 mi North 8.1 mph 17.3 mph N/A   Partly Cloudy
3:56 PM 33.8 °F 26.4 °F 30.2 °F 87% 30.26 in 10.0 mi North 9.2 mph - N/A   Partly Cloudy
4:16 PM 35.6 °F 27.5 °F 32.0 °F 87% 30.26 in 10.0 mi North 11.5 mph 16.1 mph N/A   Mostly Cloudy
4:36 PM 35.6 °F 28.6 °F 30.2 °F 81% 30.27 in 10.0 mi North 9.2 mph - N/A   Mostly Cloudy
4:56 PM 33.8 °F 27.0 °F 30.2 °F 87% 30.26 in 10.0 mi North 8.1 mph - N/A   Overcast
5:16 PM 32.0 °F 24.8 °F 30.2 °F 93% 30.26 in 10.0 mi North 8.1 mph - N/A   Mostly Cloudy
5:36 PM 32.0 °F 25.6 °F 30.2 °F 93% 30.26 in 10.0 mi North 6.9 mph - N/A   Mostly Cloudy
5:56 PM 32.0 °F 24.8 °F 30.2 °F 93% 30.26 in 10.0 mi North 8.1 mph - N/A   Overcast
6:16 PM 32.0 °F 24.2 °F 30.2 °F 93% 30.25 in 10.0 mi North 9.2 mph - N/A   Overcast
6:36 PM 32.0 °F 26.4 °F 30.2 °F 93% 30.25 in 10.0 mi North 5.8 mph 16.1 mph N/A   Overcast
6:56 PM 30.2 °F 24.3 °F 28.4 °F 93% 30.24 in 10.0 mi North 5.8 mph - N/A   Overcast
7:16 PM 30.2 °F 24.3 °F 28.4 °F 93% 30.24 in 10.0 mi North 5.8 mph - N/A   Overcast
7:36 PM 30.2 °F 23.4 °F 30.2 °F 100% 30.24 in 10.0 mi North 6.9 mph - N/A   Overcast
7:56 PM 30.2 °F 23.4 °F 30.2 °F 100% 30.24 in 10.0 mi North 6.9 mph - N/A   Overcast
8:16 PM 30.2 °F 25.4 °F 30.2 °F 100% 30.23 in 10.0 mi North 4.6 mph - N/A   Overcast
8:36 PM 30.2 °F 24.3 °F 30.2 °F 100% 30.23 in 10.0 mi North 5.8 mph - N/A   Overcast
8:56 PM 30.2 °F 23.4 °F 30.2 °F 100% 30.22 in 10.0 mi North 6.9 mph - N/A   Overcast
9:16 PM 30.2 °F - 30.2 °F 100% 30.22 in 10.0 mi Calm Calm - N/A   Mostly Cloudy
9:36 PM 30.2 °F - 28.4 °F 93% 30.22 in 10.0 mi Calm Calm - N/A   Partly Cloudy
9:56 PM 28.4 °F 24.6 °F 26.6 °F 93% 30.22 in 10.0 mi NNW 3.5 mph - N/A   Scattered Clouds
10:16 PM 30.2 °F - 28.4 °F 93% 30.21 in 10.0 mi Calm Calm - N/A   Mostly Cloudy
10:36 PM 30.2 °F 25.4 °F 28.4 °F 93% 30.21 in 10.0 mi North 4.6 mph - N/A   Overcast
10:56 PM 30.2 °F - 28.4 °F 93% 30.20 in 10.0 mi Calm Calm - N/A   Mostly Cloudy
11:16 PM 30.2 °F 25.4 °F 28.4 °F 93% 30.20 in 10.0 mi North 4.6 mph - N/A   Mostly Cloudy
11:36 PM 30.2 °F - 28.4 °F 93% 30.20 in 10.0 mi Calm Calm - N/A   Scattered Clouds
11:56 PM 28.4 °F - 26.6 °F 93% 30.19 in 10.0 mi Calm Calm - N/A   Clear